Time;durP1;ratioP1;P1;durP2;ratioP2;P2;SDS_P1;SDS_P2;PMS_P1;PMS_P2;Temp;Humidity;BMP_temperature;BMP_pressure;BME280_temperature;BME280_humidity;BME280_pressure;Samples;Min_cycle;Max_cycle;Signal;HPM_P1;HPM_P2
2021/05/15 00:02:09;;;;;;;7.57;4.93;;;7.40;99.90;;;;;;3530925;40;20041;-68
2021/05/15 00:04:34;;;;;;;9.32;4.95;;;7.30;99.90;;;;;;3531138;40;20047;-67
2021/05/15 00:07:00;;;;;;;7.28;4.90;;;7.30;99.90;;;;;;3530662;40;20091;-67
2021/05/15 00:09:26;;;;;;;7.78;4.55;;;7.40;99.90;;;;;;3531083;40;20436;-60
2021/05/15 00:11:51;;;;;;;8.05;4.88;;;7.40;99.90;;;;;;3530945;40;20049;-60
2021/05/15 00:14:17;;;;;;;7.82;4.82;;;7.60;99.90;;;;;;3530882;40;20049;-60
2021/05/15 00:16:43;;;;;;;11.98;4.95;;;7.50;99.90;;;;;;3531029;40;20027;-61
2021/05/15 00:19:08;;;;;;;10.25;5.60;;;7.40;99.90;;;;;;3530835;40;20035;-60
2021/05/15 00:21:34;;;;;;;11.25;4.68;;;7.50;99.90;;;;;;3529679;40;20034;-60
2021/05/15 00:24:01;;;;;;;9.00;5.15;;;7.40;99.90;;;;;;3530133;40;20038;-60
2021/05/15 00:26:27;;;;;;;5.40;4.05;;;7.40;99.90;;;;;;3531041;40;20043;-60
2021/05/15 00:28:53;;;;;;;6.10;4.20;;;7.20;99.90;;;;;;3530990;40;20045;-60
2021/05/15 00:31:19;;;;;;;6.97;3.95;;;7.10;99.90;;;;;;3530243;40;20039;-60
2021/05/15 00:33:45;;;;;;;10.07;4.55;;;7.00;99.90;;;;;;3531078;40;20042;-60
2021/05/15 00:36:11;;;;;;;7.60;4.50;;;7.00;99.90;;;;;;3531012;40;20079;-60
2021/05/15 00:38:37;;;;;;;7.70;4.88;;;6.90;99.90;;;;;;3529659;40;20046;-60
2021/05/15 00:41:03;;;;;;;5.60;4.00;;;6.90;99.90;;;;;;3529271;40;20047;-60
2021/05/15 00:43:29;;;;;;;7.25;4.45;;;6.90;99.90;;;;;;3530649;40;20033;-60
2021/05/15 00:45:55;;;;;;;7.00;4.70;;;6.80;99.90;;;;;;3530077;40;20039;-60
2021/05/15 00:48:21;;;;;;;7.78;4.70;;;6.80;99.90;;;;;;3530277;40;20599;-60
2021/05/15 00:50:47;;;;;;;7.18;4.28;;;6.80;99.90;;;;;;3530261;40;20141;-60
2021/05/15 00:53:13;;;;;;;5.93;4.40;;;6.80;99.90;;;;;;3531363;40;20813;-66
2021/05/15 00:55:38;;;;;;;13.68;4.70;;;6.80;99.90;;;;;;3531329;40;20035;-67
2021/05/15 00:58:04;;;;;;;10.70;4.63;;;6.80;99.90;;;;;;3531243;40;20062;-67
2021/05/15 01:00:31;;;;;;;8.07;4.82;;;6.80;99.90;;;;;;3531087;40;20042;-60
2021/05/15 01:02:57;;;;;;;7.15;4.43;;;6.80;99.90;;;;;;3531064;40;20038;-60
2021/05/15 01:05:23;;;;;;;7.88;4.35;;;6.80;99.90;;;;;;3530504;40;20126;-60
2021/05/15 01:07:50;;;;;;;6.13;4.32;;;6.70;99.90;;;;;;3531337;40;20121;-66
2021/05/15 01:10:17;;;;;;;9.95;4.50;;;6.70;99.90;;;;;;3530900;40;20117;-68
2021/05/15 01:12:55;;;;;;;6.05;4.20;;;6.70;99.90;;;;;;3530938;40;20035;-67
2021/05/15 01:15:22;;;;;;;7.80;3.95;;;6.60;99.90;;;;;;3529774;40;20047;-68
2021/05/15 01:17:57;;;;;;;7.85;4.10;;;6.60;99.90;;;;;;3530570;40;20574;-67
2021/05/15 01:20:30;;;;;;;6.30;4.07;;;6.60;99.90;;;;;;3530318;40;20064;-68
2021/05/15 01:22:56;;;;;;;8.20;4.68;;;6.50;99.90;;;;;;3537016;40;20043;-68
2021/05/15 01:25:22;;;;;;;7.75;4.50;;;6.50;99.90;;;;;;3530040;40;20041;-67
2021/05/15 01:27:48;;;;;;;9.68;4.75;;;6.50;99.90;;;;;;3529862;40;20046;-66
2021/05/15 01:30:14;;;;;;;5.88;4.30;;;6.50;99.90;;;;;;3529435;40;20058;-68
2021/05/15 01:32:44;;;;;;;10.15;4.72;;;6.40;99.90;;;;;;3530292;40;20057;-68
2021/05/15 01:35:11;;;;;;;6.40;4.20;;;6.50;99.90;;;;;;3531090;40;20039;-68
2021/05/15 01:37:37;;;;;;;8.18;4.55;;;6.50;99.90;;;;;;3530053;40;20094;-60
2021/05/15 01:40:07;;;;;;;7.43;4.32;;;6.50;99.90;;;;;;3530614;40;20087;-60
2021/05/15 01:42:32;;;;;;;10.00;4.85;;;6.50;99.90;;;;;;3531009;40;20302;-60
2021/05/15 01:44:59;;;;;;;11.18;5.70;;;6.50;99.90;;;;;;3530897;40;20107;-60
2021/05/15 01:47:27;;;;;;;8.30;5.20;;;6.50;99.90;;;;;;3531264;40;20519;-60
2021/05/15 01:49:52;;;;;;;10.27;5.13;;;6.50;99.90;;;;;;3531345;40;20109;-66
2021/05/15 01:52:18;;;;;;;9.98;4.88;;;6.60;99.90;;;;;;3531029;40;20217;-67
2021/05/15 01:54:44;;;;;;;7.43;4.55;;;6.60;99.90;;;;;;3531480;40;20077;-60
2021/05/15 01:57:10;;;;;;;9.95;5.00;;;6.70;99.90;;;;;;3531074;40;20113;-60
2021/05/15 01:59:37;;;;;;;7.10;4.80;;;6.80;99.90;;;;;;3531476;40;20413;-60
2021/05/15 02:02:03;;;;;;;7.85;5.32;;;6.80;99.90;;;;;;3531106;40;20101;-66
2021/05/15 02:04:29;;;;;;;8.23;5.40;;;6.80;99.90;;;;;;3531456;40;20050;-67
2021/05/15 02:06:57;;;;;;;13.48;5.07;;;6.80;99.90;;;;;;3530437;40;20058;-67
2021/05/15 02:09:23;;;;;;;9.88;4.93;;;6.80;99.90;;;;;;3530589;40;20517;-68
2021/05/15 02:11:49;;;;;;;8.80;5.22;;;6.80;99.90;;;;;;3530317;40;20054;-67
2021/05/15 02:14:15;;;;;;;12.18;6.18;;;6.90;99.90;;;;;;3530405;40;20050;-67
2021/05/15 02:16:41;;;;;;;7.43;4.43;;;6.90;99.90;;;;;;3530884;40;20449;-67
2021/05/15 02:19:06;;;;;;;10.00;4.53;;;7.00;99.90;;;;;;3530676;40;20035;-67
2021/05/15 02:21:32;;;;;;;9.43;5.03;;;7.00;99.90;;;;;;3530771;40;20755;-60
2021/05/15 02:23:58;;;;;;;11.75;4.75;;;6.90;99.90;;;;;;3530979;40;20031;-60
2021/05/15 02:26:24;;;;;;;8.95;4.95;;;7.00;99.90;;;;;;3530570;40;20121;-60
2021/05/15 02:28:50;;;;;;;10.50;4.97;;;7.00;99.90;;;;;;3530629;40;20428;-60
2021/05/15 02:31:16;;;;;;;10.95;5.88;;;7.00;99.90;;;;;;3530289;40;20074;-60
2021/05/15 02:33:41;;;;;;;8.52;5.32;;;7.00;99.90;;;;;;3530762;40;20507;-60
2021/05/15 02:36:07;;;;;;;12.77;5.32;;;7.00;99.90;;;;;;3529406;40;20051;-60
2021/05/15 02:38:33;;;;;;;8.85;5.50;;;7.00;99.90;;;;;;3529642;40;20051;-68
2021/05/15 02:40:59;;;;;;;11.10;5.40;;;6.90;99.90;;;;;;3537267;40;20062;-67
2021/05/15 02:43:25;;;;;;;10.13;5.63;;;6.90;99.90;;;;;;3537566;40;20039;-67
2021/05/15 02:45:50;;;;;;;8.70;6.10;;;7.00;99.90;;;;;;3530306;40;20057;-67
2021/05/15 02:48:16;;;;;;;9.77;5.90;;;7.00;99.90;;;;;;3530648;40;20146;-68
2021/05/15 02:50:47;;;;;;;13.02;7.05;;;7.00;99.90;;;;;;3530144;40;20067;-67
2021/05/15 02:53:14;;;;;;;11.07;6.97;;;7.10;99.90;;;;;;3530566;40;20039;-68
2021/05/15 02:55:39;;;;;;;14.77;7.47;;;7.10;99.90;;;;;;3531266;40;20039;-67
2021/05/15 02:58:06;;;;;;;11.18;7.10;;;7.00;99.90;;;;;;3531495;40;20050;-67
2021/05/15 03:00:32;;;;;;;12.90;6.97;;;7.00;99.90;;;;;;3538013;40;20702;-68
2021/05/15 03:02:58;;;;;;;11.27;6.38;;;7.00;99.90;;;;;;3531499;40;20041;-67
2021/05/15 03:05:26;;;;;;;10.15;6.10;;;6.90;99.90;;;;;;3531774;40;20046;-67
2021/05/15 03:07:53;;;;;;;11.10;5.85;;;7.00;99.90;;;;;;3531762;40;20054;-67
2021/05/15 03:10:23;;;;;;;12.25;7.28;;;7.00;99.90;;;;;;3532145;40;20408;-67
2021/05/15 03:12:52;;;;;;;12.60;6.80;;;7.00;99.90;;;;;;3531872;40;20039;-60
2021/05/15 03:15:19;;;;;;;10.82;6.40;;;6.90;99.90;;;;;;3531702;40;20055;-60
2021/05/15 03:17:45;;;;;;;10.73;6.75;;;7.00;99.90;;;;;;3531569;40;20046;-60
2021/05/15 03:20:17;;;;;;;11.07;5.72;;;7.00;99.90;;;;;;3531688;40;20388;-61
2021/05/15 03:22:45;;;;;;;9.32;6.10;;;7.10;99.90;;;;;;3531700;40;20417;-60
2021/05/15 03:25:11;;;;;;;9.73;5.55;;;7.20;99.90;;;;;;3531610;40;20062;-60
2021/05/15 03:27:36;;;;;;;8.00;5.53;;;7.30;99.90;;;;;;3530357;40;20047;-60
2021/05/15 03:30:05;;;;;;;12.30;5.32;;;7.40;99.90;;;;;;3531821;40;20038;-61
2021/05/15 03:32:30;;;;;;;9.35;5.30;;;7.50;99.90;;;;;;3530473;40;20071;-60
2021/05/15 03:34:56;;;;;;;8.73;5.43;;;7.60;99.90;;;;;;3531334;40;20889;-61
2021/05/15 03:37:22;;;;;;;7.72;5.10;;;7.70;99.90;;;;;;3531298;40;20117;-61
2021/05/15 03:39:49;;;;;;;10.05;5.22;;;7.80;99.90;;;;;;3530988;40;20132;-67
2021/05/15 03:42:15;;;;;;;14.73;5.70;;;7.90;99.90;;;;;;3531166;40;20055;-68
2021/05/15 03:44:40;;;;;;;9.82;5.35;;;8.00;99.90;;;;;;3531032;40;20038;-68
2021/05/15 03:47:06;;;;;;;15.57;5.80;;;8.00;99.90;;;;;;3531089;40;20321;-68
2021/05/15 03:49:32;;;;;;;8.18;4.97;;;8.00;99.90;;;;;;3531350;40;20031;-68
2021/05/15 03:51:59;;;;;;;8.75;5.40;;;8.10;99.90;;;;;;3529850;40;20054;-68
2021/05/15 03:54:25;;;;;;;11.27;5.28;;;8.10;99.90;;;;;;3530349;40;20027;-68
2021/05/15 03:56:51;;;;;;;16.15;5.35;;;8.10;99.90;;;;;;3536963;40;20563;-68
2021/05/15 03:59:17;;;;;;;12.57;5.07;;;8.00;99.90;;;;;;3530739;40;20037;-68
2021/05/15 04:01:42;;;;;;;9.73;5.32;;;7.90;99.90;;;;;;3530763;40;20043;-68
2021/05/15 04:04:08;;;;;;;9.45;4.88;;;7.80;99.90;;;;;;3529621;40;20049;-68
2021/05/15 04:06:34;;;;;;;9.93;5.40;;;7.70;99.90;;;;;;3529611;40;20079;-68
2021/05/15 04:08:59;;;;;;;8.82;5.07;;;7.70;99.90;;;;;;3530061;40;20030;-67
2021/05/15 04:11:33;;;;;;;9.25;4.82;;;7.70;99.90;;;;;;3530842;40;20103;-67
2021/05/15 04:17:01;;;;;;;11.23;5.35;;;7.70;99.90;;;;;;3530860;40;20062;-68
2021/05/15 04:19:27;;;;;;;12.50;5.50;;;7.80;99.90;;;;;;3530786;40;20047;-68
2021/05/15 04:21:53;;;;;;;9.45;6.10;;;7.80;99.90;;;;;;3529172;40;20019;-68
2021/05/15 04:24:23;;;;;;;11.55;6.57;;;7.80;99.90;;;;;;3530413;40;20038;-68
2021/05/15 04:26:50;;;;;;;14.60;7.82;;;7.80;99.90;;;;;;3530457;40;20058;-68
2021/05/15 04:29:16;;;;;;;14.70;7.20;;;7.80;99.90;;;;;;3530632;40;20042;-68
2021/05/15 04:31:41;;;;;;;14.35;8.18;;;7.60;99.90;;;;;;3530323;40;20529;-68
2021/05/15 04:34:07;;;;;;;13.90;7.13;;;7.80;99.90;;;;;;3530575;40;20058;-68
2021/05/15 04:36:33;;;;;;;9.60;6.05;;;7.90;99.90;;;;;;3530578;40;20035;-68
2021/05/15 04:38:58;;;;;;;9.95;6.18;;;7.90;99.90;;;;;;3530645;40;20039;-68
2021/05/15 04:41:24;;;;;;;10.80;5.72;;;7.90;99.90;;;;;;3530641;40;20041;-67
2021/05/15 04:43:50;;;;;;;11.15;5.95;;;8.00;99.90;;;;;;3530613;40;20301;-68
2021/05/15 04:46:16;;;;;;;7.70;5.13;;;8.00;99.90;;;;;;3530608;40;20927;-68
2021/05/15 04:48:44;;;;;;;7.72;5.60;;;8.10;99.90;;;;;;3530325;40;20042;-67
2021/05/15 04:51:10;;;;;;;10.98;5.50;;;8.30;99.90;;;;;;3530293;40;20042;-68
2021/05/15 04:53:36;;;;;;;11.07;5.72;;;8.50;99.90;;;;;;3530491;40;20038;-68
2021/05/15 04:56:02;;;;;;;10.40;5.97;;;8.60;99.90;;;;;;3530554;40;20041;-68
2021/05/15 04:58:28;;;;;;;8.68;5.13;;;8.70;99.90;;;;;;3530775;40;20055;-68
2021/05/15 05:00:53;;;;;;;7.65;4.88;;;8.90;99.90;;;;;;3531059;40;20043;-67
2021/05/15 05:03:19;;;;;;;11.45;5.57;;;9.10;99.90;;;;;;3531210;40;20037;-67
2021/05/15 05:05:45;;;;;;;8.88;5.72;;;9.10;99.90;;;;;;3531374;40;20049;-68
2021/05/15 05:08:10;;;;;;;9.30;5.68;;;9.30;99.90;;;;;;3531334;40;20035;-68
2021/05/15 05:10:37;;;;;;;13.52;4.90;;;9.50;99.90;;;;;;3531188;40;20030;-62
2021/05/15 05:13:04;;;;;;;9.18;4.78;;;9.50;99.90;;;;;;3530055;40;20050;-67
2021/05/15 05:15:30;;;;;;;13.63;5.15;;;9.60;99.90;;;;;;3530992;40;20042;-68
2021/05/15 05:17:55;;;;;;;10.02;5.10;;;9.70;99.90;;;;;;3530363;40;20043;-68
2021/05/15 05:20:21;;;;;;;8.88;5.70;;;9.90;99.90;;;;;;3530930;40;20031;-68
2021/05/15 05:22:47;;;;;;;9.30;4.68;;;9.90;99.90;;;;;;3530811;40;20062;-68
2021/05/15 05:25:13;;;;;;;6.88;4.00;;;10.00;99.90;;;;;;3530260;40;20049;-68
2021/05/15 05:27:46;;;;;;;11.70;4.90;;;10.10;99.90;;;;;;3530204;40;20336;-67
2021/05/15 05:30:16;;;;;;;5.78;4.70;;;10.00;99.90;;;;;;3529428;40;20137;-69
2021/05/15 05:32:43;;;;;;;6.07;4.53;;;10.00;99.90;;;;;;3530135;40;20045;-68
2021/05/15 05:35:10;;;;;;;9.05;4.78;;;10.20;99.90;;;;;;3537193;40;20042;-67
2021/05/15 05:37:36;;;;;;;8.00;5.78;;;10.20;99.90;;;;;;3530093;40;20042;-68
2021/05/15 05:40:03;;;;;;;10.90;5.93;;;10.20;99.90;;;;;;3530593;40;20134;-69
2021/05/15 05:42:29;;;;;;;15.05;7.10;;;10.10;99.90;;;;;;3528053;40;20034;-68
2021/05/15 05:44:55;;;;;;;11.93;7.22;;;10.20;99.90;;;;;;3531017;40;20057;-68
2021/05/15 05:47:20;;;;;;;11.20;7.22;;;10.30;99.90;;;;;;3531003;40;20038;-67
2021/05/15 05:49:46;;;;;;;11.30;7.90;;;10.40;99.90;;;;;;3530899;40;20073;-68
2021/05/15 05:52:13;;;;;;;14.52;8.38;;;10.50;99.90;;;;;;3531538;40;20035;-67
2021/05/15 05:54:39;;;;;;;13.38;8.10;;;10.50;99.90;;;;;;3526926;40;20065;-68
2021/05/15 05:57:05;;;;;;;12.10;7.97;;;10.60;99.90;;;;;;3531021;40;20432;-68
2021/05/15 05:59:30;;;;;;;17.38;9.95;;;10.70;99.90;;;;;;3531213;40;20038;-67
2021/05/15 06:01:56;;;;;;;12.20;7.28;;;10.80;99.90;;;;;;3531080;40;20043;-68
2021/05/15 06:04:22;;;;;;;11.32;7.43;;;10.80;99.90;;;;;;3530686;40;20050;-68
2021/05/15 06:06:47;;;;;;;14.10;7.30;;;10.90;99.90;;;;;;3530757;40;20053;-68
2021/05/15 06:09:17;;;;;;;14.27;7.53;;;11.10;99.90;;;;;;3530917;40;20043;-68
2021/05/15 06:11:43;;;;;;;11.35;6.88;;;11.20;99.90;;;;;;3530613;40;20051;-68
2021/05/15 06:14:09;;;;;;;11.68;6.28;;;11.40;99.90;;;;;;3530663;40;20031;-67
2021/05/15 06:16:34;;;;;;;12.52;6.55;;;11.70;99.90;;;;;;3530659;40;20043;-68
2021/05/15 06:19:00;;;;;;;8.13;5.32;;;12.10;99.90;;;;;;3530535;40;20089;-68
2021/05/15 06:21:26;;;;;;;9.75;5.18;;;12.30;99.90;;;;;;3528850;40;20042;-68
2021/05/15 06:23:51;;;;;;;7.03;5.10;;;12.30;99.90;;;;;;3530852;40;20039;-68
2021/05/15 06:26:17;;;;;;;12.77;5.70;;;12.30;99.90;;;;;;3530430;40;20038;-67
2021/05/15 06:28:43;;;;;;;13.90;8.13;;;12.40;99.90;;;;;;3530311;40;20082;-67
2021/05/15 06:31:09;;;;;;;15.95;9.50;;;12.40;99.90;;;;;;3530380;40;20058;-67
2021/05/15 06:33:35;;;;;;;7.95;5.25;;;12.40;99.90;;;;;;3529544;40;20094;-61
2021/05/15 06:36:01;;;;;;;7.45;5.60;;;12.60;99.90;;;;;;3530341;40;20046;-60
2021/05/15 06:38:27;;;;;;;11.50;6.82;;;12.50;99.90;;;;;;3529333;40;20412;-61
2021/05/15 06:40:53;;;;;;;8.68;6.63;;;12.70;99.90;;;;;;3530585;40;20039;-60
2021/05/15 06:43:19;;;;;;;10.68;6.55;;;12.80;99.90;;;;;;3530347;40;20043;-60
2021/05/15 06:45:44;;;;;;;9.32;6.63;;;12.70;99.90;;;;;;3530279;40;20628;-60
2021/05/15 06:48:10;;;;;;;12.50;6.95;;;12.80;99.90;;;;;;3529733;40;20039;-60
2021/05/15 06:50:36;;;;;;;10.57;7.18;;;12.90;99.90;;;;;;3530666;40;20054;-62
2021/05/15 06:53:02;;;;;;;12.02;6.55;;;12.90;99.90;;;;;;3529224;40;20125;-60
2021/05/15 06:55:28;;;;;;;8.60;6.78;;;13.00;99.90;;;;;;3530346;40;20522;-61
2021/05/15 06:57:54;;;;;;;10.60;6.97;;;13.00;99.90;;;;;;3530165;40;20043;-61
2021/05/15 07:00:21;;;;;;;9.50;6.75;;;13.00;99.90;;;;;;3530069;40;20051;-60
2021/05/15 07:02:47;;;;;;;10.60;6.78;;;13.00;99.90;;;;;;3530308;40;20149;-67
2021/05/15 07:05:13;;;;;;;15.82;10.23;;;13.30;99.90;;;;;;3529698;40;20782;-60
2021/05/15 07:07:38;;;;;;;11.48;8.10;;;13.40;99.90;;;;;;3530026;40;20039;-60
2021/05/15 07:10:05;;;;;;;10.32;7.53;;;13.50;99.90;;;;;;3530533;40;20282;-67
2021/05/15 07:12:30;;;;;;;10.65;7.53;;;13.50;99.90;;;;;;3529221;40;20564;-67
2021/05/15 07:14:57;;;;;;;12.88;8.40;;;13.70;99.90;;;;;;3529851;40;20039;-67
2021/05/15 07:17:25;;;;;;;11.15;7.70;;;13.70;99.90;;;;;;3529923;40;20526;-67
2021/05/15 07:19:55;;;;;;;10.02;7.00;;;13.80;99.90;;;;;;3529469;40;20035;-67
2021/05/15 07:22:24;;;;;;;22.60;12.13;;;14.00;99.90;;;;;;3528768;40;20027;-67
2021/05/15 07:24:54;;;;;;;14.20;8.00;;;14.20;99.90;;;;;;3529602;40;20031;-67
2021/05/15 07:27:21;;;;;;;11.93;8.52;;;14.20;99.90;;;;;;3529626;40;20035;-67
2021/05/15 07:29:48;;;;;;;12.07;8.38;;;14.30;99.90;;;;;;3529039;40;20051;-67
2021/05/15 07:32:15;;;;;;;11.98;8.70;;;14.30;99.90;;;;;;3529492;40;20030;-67
2021/05/15 07:34:41;;;;;;;12.27;8.38;;;14.30;99.90;;;;;;3529507;40;20149;-67
2021/05/15 07:37:09;;;;;;;13.02;9.23;;;14.40;99.90;;;;;;3529159;40;20043;-67
2021/05/15 07:39:36;;;;;;;14.10;9.10;;;14.40;99.90;;;;;;3529458;40;20055;-67
2021/05/15 07:42:02;;;;;;;17.33;9.13;;;14.50;99.90;;;;;;3531246;40;20118;-67
2021/05/15 07:44:28;;;;;;;16.77;9.52;;;14.50;99.90;;;;;;3531501;40;20436;-68
2021/05/15 07:46:53;;;;;;;13.57;8.88;;;14.70;99.90;;;;;;3529754;40;20049;-68
2021/05/15 07:49:19;;;;;;;14.57;8.55;;;14.90;99.90;;;;;;3530223;40;20044;-67
2021/05/15 07:51:45;;;;;;;32.30;18.25;;;15.20;99.90;;;;;;3528868;40;20141;-67
2021/05/15 07:54:12;;;;;;;14.63;9.52;;;15.20;99.90;;;;;;3530892;40;20041;-67
2021/05/15 07:56:38;;;;;;;13.93;8.15;;;15.00;99.90;;;;;;3529578;40;20042;-68
2021/05/15 07:59:04;;;;;;;13.15;8.25;;;15.20;99.90;;;;;;3531185;40;20049;-68
2021/05/15 08:01:29;;;;;;;13.95;7.88;;;15.50;99.90;;;;;;3529772;40;20042;-67
2021/05/15 08:03:55;;;;;;;16.88;8.88;;;15.80;99.90;;;;;;3530748;40;20046;-67
2021/05/15 08:06:21;;;;;;;13.25;7.85;;;16.20;99.90;;;;;;3530744;40;20031;-68
2021/05/15 08:08:46;;;;;;;11.50;7.55;;;16.20;99.90;;;;;;3530593;40;20078;-67
2021/05/15 08:11:12;;;;;;;11.55;7.47;;;16.30;99.90;;;;;;3530102;40;20027;-67
2021/05/15 08:13:39;;;;;;;13.10;7.53;;;16.60;99.90;;;;;;3530743;40;20038;-68
2021/05/15 08:16:05;;;;;;;9.48;7.05;;;15.80;99.90;;;;;;3530026;40;20045;-67
2021/05/15 08:18:31;;;;;;;11.95;7.30;;;16.70;99.90;;;;;;3530474;40;20031;-67
2021/05/15 08:20:56;;;;;;;8.07;6.65;;;16.90;99.90;;;;;;3530346;40;20051;-67
2021/05/15 08:23:22;;;;;;;10.15;7.28;;;17.10;99.90;;;;;;3530548;40;20075;-67
2021/05/15 08:25:48;;;;;;;8.65;6.93;;;17.30;99.90;;;;;;3529830;40;20035;-67
2021/05/15 08:28:16;;;;;;;9.80;6.70;;;17.30;99.90;;;;;;3530078;40;20046;-68
2021/05/15 08:30:43;;;;;;;11.52;7.07;;;17.30;99.90;;;;;;3529901;40;20055;-67
2021/05/15 08:33:09;;;;;;;10.48;7.03;;;17.40;99.90;;;;;;3529226;40;20637;-68
2021/05/15 08:35:36;;;;;;;8.98;5.85;;;17.80;99.90;;;;;;3530109;40;20707;-68
2021/05/15 08:38:04;;;;;;;11.50;6.38;;;18.20;99.90;;;;;;3528514;40;20055;-68
2021/05/15 08:40:31;;;;;;;8.23;6.20;;;18.50;99.90;;;;;;3528622;40;20039;-68
2021/05/15 08:42:57;;;;;;;9.27;6.50;;;18.60;99.90;;;;;;3529653;40;20031;-68
2021/05/15 08:45:25;;;;;;;8.75;5.38;;;18.90;99.90;;;;;;3530553;40;20062;-67
2021/05/15 08:47:52;;;;;;;9.50;6.35;;;18.90;99.90;;;;;;3530547;40;20037;-67
2021/05/15 08:50:24;;;;;;;8.35;6.25;;;18.90;99.90;;;;;;3529917;40;20616;-65
2021/05/15 08:52:52;;;;;;;9.82;5.40;;;19.10;99.90;;;;;;3537101;40;20189;-66
2021/05/15 08:55:27;;;;;;;8.98;6.03;;;19.30;99.90;;;;;;3528793;40;20866;-65
2021/05/15 08:57:54;;;;;;;8.85;5.93;;;20.40;99.50;;;;;;3529174;40;20031;-66
2021/05/15 09:00:24;;;;;;;6.93;5.28;;;19.80;98.30;;;;;;3530793;40;20062;-59
2021/05/15 09:02:53;;;;;;;9.15;5.25;;;19.50;98.40;;;;;;3530856;40;20019;-59
2021/05/15 09:05:20;;;;;;;8.98;4.93;;;19.50;98.80;;;;;;3530481;40;20466;-65
2021/05/15 09:07:52;;;;;;;7.60;5.60;;;19.10;98.80;;;;;;3538643;40;20039;-65
2021/05/15 09:10:21;;;;;;;7.10;5.32;;;18.90;99.60;;;;;;3529744;40;20057;-59
2021/05/15 09:12:47;;;;;;;8.80;5.60;;;18.80;99.70;;;;;;3530675;40;20041;-60
2021/05/15 09:15:15;;;;;;;9.10;6.60;;;18.50;99.60;;;;;;3537159;40;20086;-59
2021/05/15 09:17:43;;;;;;;8.20;5.88;;;18.40;99.50;;;;;;3529624;40;20045;-59
2021/05/15 09:20:09;;;;;;;8.00;5.18;;;18.50;99.90;;;;;;3529730;40;20162;-66
2021/05/15 09:22:35;;;;;;;9.57;5.47;;;19.00;99.90;;;;;;3528243;40;20031;-66
2021/05/15 09:25:05;;;;;;;9.23;4.93;;;19.30;98.30;;;;;;3530422;40;20039;-59
2021/05/15 09:27:35;;;;;;;9.50;5.07;;;20.80;98.80;;;;;;3529381;40;20673;-66
2021/05/15 09:30:02;;;;;;;6.55;4.63;;;20.50;97.10;;;;;;3531434;40;20050;-66
2021/05/15 09:32:33;;;;;;;7.65;4.85;;;20.50;97.30;;;;;;3529896;40;20090;-66
2021/05/15 09:34:59;;;;;;;6.90;4.18;;;;;;;;;;3531164;40;20069;-66
2021/05/15 09:37:39;;;;;;;5.97;3.78;;;;;;;;;;3529554;40;20031;-66
2021/05/15 09:40:19;;;;;;;4.07;2.40;;;;;;;;;;3530747;40;20049;-65
2021/05/15 09:42:53;;;;;;;2.70;1.67;;;22.40;86.90;;;;;;3531129;40;20031;-66
2021/05/15 09:45:20;;;;;;;2.60;1.45;;;;;;;;;;3530205;40;20449;-67
2021/05/15 09:48:35;;;;;;;2.80;1.75;;;22.00;85.00;;;;;;3530781;40;20385;-66
2021/05/15 09:51:19;;;;;;;3.10;2.05;;;21.10;81.60;;;;;;3530517;40;20046;-68
2021/05/15 09:53:45;;;;;;;2.70;1.60;;;21.50;88.40;;;;;;3530613;40;20079;-66
2021/05/15 09:56:12;;;;;;;3.35;1.27;;;21.40;87.20;;;;;;3530484;40;20439;-67
2021/05/15 09:58:40;;;;;;;2.13;1.48;;;21.20;86.00;;;;;;3530637;40;20041;-68
2021/05/15 10:01:06;;;;;;;4.18;1.27;;;21.40;81.40;;;;;;3529884;40;20034;-66
2021/05/15 10:03:36;;;;;;;2.15;0.90;;;;;;;;;;3530314;40;20039;-59
2021/05/15 10:06:04;;;;;;;2.33;1.50;;;;;;;;;;3530509;40;20038;-59
2021/05/15 10:08:31;;;;;;;5.20;1.02;;;;;;;;;;3528580;40;20433;-59
2021/05/15 10:10:57;;;;;;;1.00;0.90;;;;;;;;;;3528932;40;20043;-67
2021/05/15 10:13:23;;;;;;;4.30;1.00;;;;;;;;;;3529904;40;20063;-66
2021/05/15 10:15:50;;;;;;;10.60;1.10;;;20.00;81.90;;;;;;3529662;40;20038;-66
2021/05/15 10:18:17;;;;;;;3.05;1.20;;;;;;;;;;3529662;40;20124;-65
2021/05/15 10:20:43;;;;;;;2.22;0.90;;;20.90;84.70;;;;;;3529926;40;20054;-66
2021/05/15 10:23:28;;;;;;;2.47;1.27;;;20.50;80.20;;;;;;3529000;40;20034;-67
2021/05/15 10:26:15;;;;;;;7.10;1.30;;;19.50;81.60;;;;;;3530618;40;20054;-67
2021/05/15 10:28:42;;;;;;;1.88;1.10;;;19.40;87.00;;;;;;3535348;40;20457;-67
2021/05/15 10:31:11;;;;;;;2.55;1.00;;;18.80;84.30;;;;;;3529753;40;20479;-67
2021/05/15 10:33:39;;;;;;;1.60;1.00;;;18.50;89.20;;;;;;3528908;40;20039;-67
2021/05/15 10:36:06;;;;;;;8.95;1.25;;;18.50;89.70;;;;;;3528865;40;20050;-67
2021/05/15 10:38:39;;;;;;;2.40;1.00;;;18.00;94.30;;;;;;3530150;40;20031;-66
2021/05/15 10:41:17;;;;;;;6.03;1.50;;;17.70;94.90;;;;;;3528334;40;20133;-66
2021/05/15 10:43:44;;;;;;;4.60;1.10;;;;;;;;;;3530288;40;20042;-67
2021/05/15 10:46:14;;;;;;;4.00;0.80;;;17.40;96.30;;;;;;3529865;40;20046;-67
2021/05/15 10:48:41;;;;;;;3.60;0.65;;;;;;;;;;3529561;40;20046;-67
2021/05/15 10:51:07;;;;;;;8.68;0.70;;;;;;;;;;3528732;40;20027;-70
2021/05/15 10:53:33;;;;;;;4.10;0.98;;;;;;;;;;3530276;40;20074;-68
2021/05/15 10:56:13;;;;;;;0.40;0.30;;;15.90;97.80;;;;;;3530198;40;20039;-67
2021/05/15 10:58:43;;;;;;;2.85;0.65;;;16.60;99.00;;;;;;3529322;40;20042;-68
2021/05/15 11:01:11;;;;;;;3.90;0.40;;;15.90;99.90;;;;;;3529796;40;20035;-68
2021/05/15 11:03:39;;;;;;;0.90;0.50;;;15.10;99.90;;;;;;3531139;40;20796;-68
2021/05/15 11:06:22;;;;;;;0.68;0.40;;;15.80;99.90;;;;;;3537777;40;20035;-68
2021/05/15 11:09:04;;;;;;;1.83;0.55;;;16.40;99.90;;;;;;3530299;40;20344;-68
2021/05/15 11:11:43;;;;;;;0.73;0.55;;;;;;;;;;3529410;40;20810;-68
2021/05/15 11:14:26;;;;;;;1.25;0.32;;;18.10;96.60;;;;;;3529656;40;20102;-68
2021/05/15 11:17:10;;;;;;;3.42;1.00;;;18.30;96.50;;;;;;3530303;40;20068;-68
2021/05/15 11:19:36;;;;;;;2.17;1.20;;;19.20;96.80;;;;;;3531807;40;20070;-67
2021/05/15 11:22:02;;;;;;;1.73;0.63;;;19.90;93.00;;;;;;3531019;40;20045;-68
2021/05/15 11:24:33;;;;;;;1.98;0.65;;;20.10;91.40;;;;;;3531352;40;20055;-68
2021/05/15 11:27:09;;;;;;;2.15;0.80;;;20.40;91.90;;;;;;3531261;40;20034;-60
2021/05/15 11:29:36;;;;;;;2.47;0.68;;;20.10;91.00;;;;;;3530952;40;20150;-61
2021/05/15 11:32:16;;;;;;;4.22;0.70;;;20.00;92.80;;;;;;3530171;40;20145;-60
2021/05/15 11:34:43;;;;;;;1.90;0.80;;;20.40;92.30;;;;;;3531116;40;20050;-60
2021/05/15 11:37:11;;;;;;;1.30;0.70;;;20.40;92.90;;;;;;3531059;40;20432;-68
2021/05/15 11:39:37;;;;;;;1.67;0.57;;;20.80;90.70;;;;;;3530998;40;20041;-61
2021/05/15 11:42:04;;;;;;;3.05;0.70;;;21.40;92.00;;;;;;3538143;40;20127;-61
2021/05/15 11:44:30;;;;;;;1.45;0.63;;;;;;;;;;3531128;40;20042;-61
2021/05/15 11:46:55;;;;;;;3.33;1.23;;;21.80;90.60;;;;;;3530807;40;20042;-61
2021/05/15 11:49:23;;;;;;;3.45;0.50;;;21.00;84.20;;;;;;3531257;40;20047;-61
2021/05/15 11:51:59;;;;;;;14.20;2.58;;;;;;;;;;3537253;40;20029;-60
2021/05/15 11:54:25;;;;;;;7.22;2.38;;;;;;;;;;3530627;40;20047;-68
2021/05/15 11:56:52;;;;;;;6.38;1.60;;;;;;;;;;3530343;40;20421;-70
2021/05/15 11:59:19;;;;;;;5.03;1.73;;;22.70;76.40;;;;;;3530556;40;20186;-68
2021/05/15 12:01:45;;;;;;;3.00;0.85;;;;;;;;;;3529588;40;20058;-68
2021/05/15 12:04:17;;;;;;;10.18;2.42;;;;;;;;;;3530463;40;20050;-68
2021/05/15 12:06:44;;;;;;;24.25;5.18;;;;;;;;;;3529966;40;20051;-68
2021/05/15 12:09:12;;;;;;;7.53;1.92;;;;;;;;;;3531203;40;20087;-60
2021/05/15 12:11:38;;;;;;;5.35;1.40;;;;;;;;;;3531090;40;20035;-61
2021/05/15 12:14:05;;;;;;;1.13;0.60;;;;;;;;;;3530933;40;20046;-60
2021/05/15 12:16:33;;;;;;;11.57;4.13;;;;;;;;;;3531227;40;20141;-60
2021/05/15 12:18:59;;;;;;;11.85;3.88;;;;;;;;;;3531047;40;20043;-60
2021/05/15 12:21:26;;;;;;;43.70;7.28;;;;;;;;;;3530973;40;20039;-68
2021/05/15 12:23:52;;;;;;;24.35;5.68;;;;;;;;;;3529483;40;20111;-68
2021/05/15 12:26:19;;;;;;;22.00;5.10;;;;;;;;;;3529240;40;20145;-67
2021/05/15 12:28:46;;;;;;;36.83;6.88;;;;;;;;;;3530930;40;20034;-68
2021/05/15 12:31:25;;;;;;;6.07;2.53;;;;;;;;;;3531534;40;20161;-68
2021/05/15 12:33:52;;;;;;;25.10;5.63;;;;;;;;;;3530964;40;20625;-68
2021/05/15 12:36:18;;;;;;;34.97;6.03;;;;;;;;;;3530987;40;20819;-68
2021/05/15 12:38:47;;;;;;;2.97;0.47;;;19.90;69.70;;;;;;3531360;40;20043;-68
2021/05/15 12:41:14;;;;;;;1.48;0.68;;;;;;;;;;3531059;40;20066;-67
2021/05/15 12:43:43;;;;;;;1.45;0.70;;;19.60;71.30;;;;;;3531457;40;20881;-68
2021/05/15 12:46:12;;;;;;;2.58;0.90;;;20.20;80.10;;;;;;3531034;40;20039;-59
2021/05/15 12:48:40;;;;;;;22.88;12.23;;;18.90;74.30;;;;;;3536723;40;20053;-60
2021/05/15 12:51:12;;;;;;;3.45;0.80;;;18.40;85.30;;;;;;3531546;40;20061;-67
2021/05/15 12:53:39;;;;;;;2.22;1.08;;;18.20;87.30;;;;;;3531126;40;20043;-68
2021/05/15 12:56:12;;;;;;;2.30;1.10;;;18.20;90.20;;;;;;3531203;40;20050;-59
2021/05/15 12:58:38;;;;;;;5.47;0.60;;;;;;;;;;3531075;40;20844;-60
2021/05/15 13:01:12;;;;;;;4.95;1.10;;;16.00;99.90;;;;;;3530906;40;20042;-59
2021/05/15 13:03:47;;;;;;;1.67;0.90;;;16.70;99.90;;;;;;3530666;40;20089;-60